Biggleswade, United Kingdom
Current Conditions -  °F | °C
As of 11:20 AM on Wednesday 26 Nov 2014 (Local Time) from EGTC Reporting Station
Moderate Fog Moderate Fog  
Wind Chill: 44°   Ceiling: 200
Heat Index: 46°   Visibility: 0.37mi
Dew Point: 46°   Wind: 6mph
Humidity: 100%   Direction: 90°E
Pressure: 29.85"   Gusts: NA
Location:  52.09°N, 0.26°W
Report Text: EGTC 261120Z 09005KT 0600 FG OVC002 08/08 Q1011
Loading
Personal Weather Stations






























Interactive Weather Map New forecast layout! Learn more

10-Day Weather Forecast

Advertisements
Track Severe Weather on mobile